Decoded Metar for KSNA (SANTA ANA in CA, USA) (IATA:SNA) | Meteo·Mobile Aviation Weather
aviador You're here:

KSNA Decoded Metar

SANTA ANA in CA, USA
Report Time2019-07-24 04:53:00
UTC Time2019-07-24 05:18:10
Flight Rules vfr VFR
Wind170° at 04 kt
W.Decomp.*RWY 19: 3.3 kt HW 2.2 kt LCW
Visibility9999 m
Phenomena:N/A
Clouds:Few 250 Hf
Expected CloudBase > 2,000 ft AGL from Temp-Dew spread
CeilingNone
Temp23°C (ISA +8)
Dew Point18°C (74% RH)
QNH1014 hPa
Density Alt1,234 ft
Elevation52 ft
Report Wrong Elevation
Raw Report
KSNA 240453Z 17004KT 10SM FEW250 23/18 A2995 RMK AO2 SLP141
T02280178 $=

Extra information for KSNA:More info

Metar Taf Metar & Taf Last 4 Metars F.Rules Stats Wind Profile Meteogram Temp Stats Airport Information Weather charts Add Link Nearby VenuesMetar ALERT Operation Metar Decoded Social comments

AIRNAV info for KSNA